Terminal Aerodrome Forecast
Issued by NWS

Home | Current Version | Previous Version | Text Only | Print | Product List | Glossary On
Versions: 1 2 3 4 5 6 7 8 9 10 11 12 13
886
FTUS46 KSGX 260520
TAFTRM
TAF
KTRM 260520Z 2606/2706 33012G20KT P6SM FEW100
     FM260900 32010KT P6SM FEW100
     FM261700 32007KT P6SM FEW100=

USA.gov is the U.S. government's official web portal to all federal, state and local government web resources and services.